createdAt,value
2022-11-06T00:02:14.793Z,63.54
2022-11-06T00:05:38.917Z,63.95
2022-11-06T00:08:42.617Z,65.79
2022-11-06T00:11:48.641Z,64.68
2022-11-06T00:14:52.388Z,65.61
2022-11-06T00:17:56.216Z,64.82
2022-11-06T00:20:59.821Z,65.75
2022-11-06T00:24:05.564Z,67.98
2022-11-06T00:27:10.759Z,67.24
2022-11-06T00:30:14.519Z,67.34
2022-11-06T00:33:18.249Z,66.01
2022-11-06T00:36:24.598Z,65.61
2022-11-06T00:39:28.326Z,67.13
2022-11-06T00:42:33.838Z,67.06
2022-11-06T00:45:37.575Z,66.82
2022-11-06T00:48:43.085Z,68.02
2022-11-06T00:51:46.833Z,66.97
2022-11-06T00:54:50.492Z,66.34
2022-11-06T00:57:55.562Z,66.16
2022-11-06T01:01:07.756Z,64.88
2022-11-06T01:04:14.777Z,65.31
2022-11-06T01:07:18.898Z,64.63
2022-11-06T01:10:22.629Z,63.82
2022-11-06T01:13:27.771Z,64.22
2022-11-06T01:16:32.380Z,64.25
2022-11-06T01:19:35.925Z,64.64
2022-11-06T01:22:39.652Z,66.24
2022-11-06T01:25:43.499Z,66.48
2022-11-06T01:28:48.925Z,65.46
2022-11-06T01:31:52.731Z,64.83
2022-11-06T01:34:56.428Z,64.90
2022-11-06T01:38:00.045Z,64.86
2022-11-06T01:41:03.759Z,66.08
2022-11-06T01:44:47.218Z,65.36
2022-11-06T01:47:51.196Z,64.50
2022-11-06T01:50:58.168Z,64.00
2022-11-06T01:54:04.689Z,64.20
2022-11-06T01:57:08.922Z,64.22
2022-11-06T02:00:15.393Z,64.16
2022-11-06T02:03:19.964Z,63.91
2022-11-06T02:06:24.052Z,63.86
2022-11-06T02:09:28.288Z,64.27
2022-11-06T02:12:43.478Z,64.11
2022-11-06T02:15:54.084Z,64.56
2022-11-06T02:19:09.574Z,65.77
2022-11-06T02:22:27.885Z,64.27
2022-11-06T02:25:43.732Z,64.18
2022-11-06T02:28:54.966Z,63.89
2022-11-06T02:32:05.529Z,64.46
2022-11-06T02:35:19.738Z,63.93
2022-11-06T02:38:27.725Z,65.79
2022-11-06T02:41:34.197Z,65.80
2022-11-06T02:44:40.796Z,65.10
2022-11-06T02:47:46.438Z,64.60
2022-11-06T02:50:52.537Z,65.01
2022-11-06T02:54:00.501Z,64.88
2022-11-06T02:57:10.032Z,64.48
2022-11-06T03:00:18.072Z,64.93
2022-11-06T03:03:25.727Z,65.07
2022-11-06T03:06:34.405Z,65.60
2022-11-06T03:09:38.200Z,65.81
2022-11-06T03:12:54.728Z,64.75
2022-11-06T03:16:05.793Z,64.58
2022-11-06T03:19:20.553Z,64.78
2022-11-06T03:22:32.393Z,64.77
2022-11-06T03:25:43.580Z,65.65
2022-11-06T03:28:53.099Z,65.07
2022-11-06T03:32:01.317Z,65.52
2022-11-06T03:35:13.677Z,65.64
2022-11-06T03:38:21.894Z,65.22
2022-11-06T03:41:31.426Z,66.05
2022-11-06T03:44:40.963Z,67.18
2022-11-06T03:47:49.355Z,66.02
2022-11-06T03:51:02.258Z,65.91
2022-11-06T03:54:08.332Z,66.46
2022-11-06T03:57:15.927Z,66.30
2022-11-06T04:00:21.236Z,67.10
2022-11-06T04:03:32.163Z,67.34
2022-11-06T04:06:42.000Z,66.38
2022-11-06T04:10:17.828Z,66.42
2022-11-06T04:13:41.585Z,65.74
2022-11-06T04:16:49.909Z,65.76
2022-11-06T04:19:58.978Z,67.28
2022-11-06T04:23:10.764Z,67.75
2022-11-06T04:26:37.795Z,69.57
2022-11-06T04:30:04.245Z,69.78
2022-11-06T04:33:15.470Z,67.13
2022-11-06T04:36:29.507Z,66.98
2022-11-06T04:39:41.730Z,66.37
2022-11-06T04:42:52.632Z,66.33
2022-11-06T04:45:59.318Z,66.69
2022-11-06T04:49:05.628Z,66.36
2022-11-06T04:52:15.635Z,66.59
2022-11-06T04:55:19.478Z,65.89
2022-11-06T04:58:23.204Z,65.83
2022-11-06T05:01:27.817Z,65.73
2022-11-06T05:04:32.627Z,65.57
2022-11-06T05:07:37.779Z,66.15
2022-11-06T05:10:41.420Z,67.27
2022-11-06T05:13:45.538Z,66.21
2022-11-06T05:16:49.217Z,66.41
2022-11-06T05:19:52.813Z,67.61
2022-11-06T05:23:00.739Z,67.32
2022-11-06T05:26:04.718Z,67.01
2022-11-06T05:29:08.280Z,66.91
2022-11-06T05:32:11.996Z,66.61
2022-11-06T05:35:15.647Z,66.04
2022-11-06T05:38:20.914Z,66.96
2022-11-06T05:41:24.647Z,67.11
2022-11-06T05:44:28.321Z,66.93
2022-11-06T05:47:32.067Z,66.85
2022-11-06T05:50:35.886Z,65.69
2022-11-06T05:53:41.968Z,65.09
2022-11-06T05:56:45.725Z,65.01
2022-11-06T05:59:49.574Z,65.29
2022-11-06T06:02:53.521Z,66.07
2022-11-06T06:05:57.488Z,66.57
2022-11-06T06:09:02.669Z,67.01
2022-11-06T06:12:07.106Z,66.01
2022-11-06T06:15:14.239Z,67.62
2022-11-06T06:18:17.938Z,66.88
2022-11-06T06:21:21.536Z,65.87
2022-11-06T06:24:26.783Z,67.87
2022-11-06T06:27:31.388Z,66.62
2022-11-06T06:30:36.131Z,66.62
2022-11-06T06:33:39.817Z,65.99
2022-11-06T06:36:43.626Z,66.03
2022-11-06T06:39:48.769Z,66.06
2022-11-06T06:42:52.612Z,66.36
2022-11-06T06:45:59.460Z,66.64
2022-11-06T06:49:03.328Z,67.01
2022-11-06T06:52:08.117Z,66.46
2022-11-06T06:55:13.305Z,68.88
2022-11-06T06:58:18.176Z,67.46
2022-11-06T07:01:22.121Z,67.52
2022-11-06T07:04:25.949Z,66.08
2022-11-06T07:07:29.779Z,67.87
2022-11-06T07:10:35.128Z,66.85
2022-11-06T07:13:39.053Z,67.84
2022-11-06T07:16:43.073Z,67.64
2022-11-06T07:19:47.145Z,67.12
2022-11-06T07:22:51.099Z,67.76
2022-11-06T07:25:56.750Z,66.40
2022-11-06T07:29:00.528Z,65.16
2022-11-06T07:32:04.408Z,64.83
2022-11-06T07:35:09.139Z,64.51
2022-11-06T07:38:13.352Z,63.86
2022-11-06T07:41:19.809Z,65.80
2022-11-06T07:44:23.506Z,64.50
2022-11-06T07:47:27.858Z,64.19
2022-11-06T07:50:32.616Z,64.55
2022-11-06T07:53:37.035Z,65.38
2022-11-06T07:56:42.285Z,65.43
2022-11-06T07:59:45.965Z,66.09
2022-11-06T08:02:53.628Z,65.65
2022-11-06T08:05:57.895Z,66.75
2022-11-06T08:09:01.829Z,67.24
2022-11-06T08:12:10.588Z,66.69
2022-11-06T08:15:14.391Z,66.84
2022-11-06T08:18:18.528Z,67.96
2022-11-06T08:21:22.339Z,69.32
2022-11-06T08:24:26.168Z,69.38
2022-11-06T08:27:31.410Z,70.78
2022-11-06T08:30:35.387Z,70.48
2022-11-06T08:33:40.900Z,69.76
2022-11-06T08:36:49.715Z,69.97
2022-11-06T08:39:53.625Z,69.72
2022-11-06T08:43:01.958Z,70.86
2022-11-06T08:46:06.385Z,70.67
2022-11-06T08:49:11.335Z,70.05
2022-11-06T08:52:15.077Z,69.25
2022-11-06T08:55:19.189Z,68.43
2022-11-06T08:58:24.433Z,69.19
2022-11-06T09:01:31.146Z,70.80
2022-11-06T09:04:40.116Z,72.79
2022-11-06T09:07:45.025Z,74.06
2022-11-06T09:10:48.986Z,71.90
2022-11-06T09:13:54.264Z,72.76
2022-11-06T09:16:58.689Z,73.41
2022-11-06T09:20:02.490Z,72.84
2022-11-06T09:23:13.360Z,74.40
2022-11-06T09:26:17.899Z,74.94
2022-11-06T09:29:23.126Z,73.38
2022-11-06T09:32:27.029Z,73.39
2022-11-06T09:35:32.704Z,73.86
2022-11-06T09:38:36.590Z,75.11
2022-11-06T09:41:53.632Z,76.52
2022-11-06T09:45:09.478Z,79.09
2022-11-06T09:48:21.959Z,79.92
2022-11-06T09:51:33.155Z,81.13
2022-11-06T09:54:43.714Z,80.05
2022-11-06T09:57:52.762Z,82.53
2022-11-06T10:01:01.213Z,82.92
2022-11-06T10:04:06.230Z,82.82
2022-11-06T10:07:21.081Z,82.58
2022-11-06T10:10:32.146Z,81.45
2022-11-06T10:13:55.909Z,83.37
2022-11-06T10:17:16.106Z,82.21
2022-11-06T10:20:27.275Z,81.94
2022-11-06T10:23:45.778Z,81.46
2022-11-06T10:26:58.018Z,81.47
2022-11-06T10:30:11.064Z,80.98
2022-11-06T10:33:30.285Z,81.94
2022-11-06T10:36:52.749Z,80.27
2022-11-06T10:40:05.839Z,79.92
2022-11-06T10:43:23.999Z,80.02
2022-11-06T10:46:36.346Z,79.73
2022-11-06T10:49:48.268Z,80.06
2022-11-06T10:53:00.626Z,78.64
2022-11-06T10:56:21.373Z,79.58
2022-11-06T10:59:29.143Z,79.50
2022-11-06T11:02:37.034Z,80.72
2022-11-06T11:05:46.835Z,80.82
2022-11-06T11:08:56.108Z,78.86
2022-11-06T11:12:00.736Z,79.04
2022-11-06T11:15:16.846Z,78.24
2022-11-06T11:18:31.185Z,77.68
2022-11-06T11:21:39.348Z,78.25
2022-11-06T11:25:03.814Z,75.96
2022-11-06T11:28:22.174Z,75.69
2022-11-06T11:31:32.145Z,75.08
2022-11-06T11:34:40.620Z,74.77
2022-11-06T11:37:49.558Z,74.88
2022-11-06T11:41:06.944Z,74.06
2022-11-06T11:44:17.985Z,73.23
2022-11-06T11:47:27.178Z,72.82
2022-11-06T11:50:38.207Z,72.89
2022-11-06T11:53:51.870Z,72.46
2022-11-06T11:57:07.759Z,75.43
2022-11-06T12:00:20.606Z,73.72
2022-11-06T12:03:29.009Z,74.35
2022-11-06T12:06:37.094Z,74.79
2022-11-06T12:09:55.049Z,74.78
2022-11-06T12:13:01.888Z,76.36
2022-11-06T12:16:13.945Z,77.36
2022-11-06T12:19:24.685Z,78.51
2022-11-06T12:22:35.304Z,77.72
2022-11-06T12:25:52.005Z,77.15
2022-11-06T12:29:04.887Z,78.22
2022-11-06T12:32:21.278Z,78.63
2022-11-06T12:35:29.557Z,78.29
2022-11-06T12:38:44.469Z,79.86
2022-11-06T12:41:53.330Z,79.03
2022-11-06T12:45:00.219Z,79.09
2022-11-06T12:48:13.100Z,80.25
2022-11-06T12:51:26.414Z,79.25
2022-11-06T12:54:46.422Z,79.58
2022-11-06T12:58:06.637Z,78.44
2022-11-06T13:01:20.748Z,77.59
2022-11-06T13:04:38.324Z,77.18
2022-11-06T13:08:14.867Z,78.36
2022-11-06T13:11:32.037Z,77.84
2022-11-06T13:14:43.374Z,77.36
2022-11-06T13:17:53.731Z,77.48
2022-11-06T13:21:01.125Z,80.48
2022-11-06T13:24:12.568Z,80.29
2022-11-06T13:27:26.275Z,79.09
2022-11-06T13:30:33.656Z,79.77
2022-11-06T13:33:43.727Z,82.11
2022-11-06T13:36:48.428Z,80.26
2022-11-06T13:40:02.972Z,80.18
2022-11-06T13:43:09.394Z,81.69
2022-11-06T13:46:26.202Z,80.65
2022-11-06T13:49:38.539Z,80.10
2022-11-06T13:52:50.883Z,79.87
2022-11-06T13:56:07.334Z,78.03
2022-11-06T13:59:32.782Z,77.28
2022-11-06T14:03:02.285Z,75.89
2022-11-06T14:06:08.365Z,76.14
2022-11-06T14:09:18.227Z,75.21
2022-11-06T14:12:24.625Z,74.73
2022-11-06T14:15:37.900Z,74.58
2022-11-06T14:18:43.618Z,75.16
2022-11-06T14:21:49.869Z,76.03
2022-11-06T14:24:59.970Z,76.26
2022-11-06T14:28:07.615Z,76.38
2022-11-06T14:31:14.807Z,77.33
2022-11-06T14:34:31.883Z,78.17
2022-11-06T14:37:50.228Z,78.62
2022-11-06T14:40:54.108Z,80.11
2022-11-06T14:43:59.696Z,81.30
2022-11-06T14:47:07.097Z,80.63
2022-11-06T14:50:27.269Z,80.31
2022-11-06T14:53:36.004Z,81.94
2022-11-06T14:56:40.377Z,81.78
2022-11-06T14:59:44.674Z,82.27
2022-11-06T15:02:49.934Z,84.04
2022-11-06T15:06:01.089Z,83.65
2022-11-06T15:09:06.596Z,83.88
2022-11-06T15:12:10.257Z,85.32
2022-11-06T15:15:20.408Z,84.34
2022-11-06T15:18:26.456Z,84.62
2022-11-06T15:21:34.438Z,86.19
2022-11-06T15:24:43.014Z,86.38
2022-11-06T15:27:54.168Z,86.94
2022-11-06T15:31:02.767Z,86.11
2022-11-06T15:34:14.490Z,85.74
2022-11-06T15:37:23.126Z,85.96
2022-11-06T15:40:30.119Z,85.80
2022-11-06T15:43:37.648Z,86.12
2022-11-06T15:46:54.579Z,86.42
2022-11-06T15:50:15.688Z,85.94
2022-11-06T15:53:23.847Z,84.97
2022-11-06T15:56:33.375Z,85.22
2022-11-06T15:59:37.106Z,85.50
2022-11-06T16:02:50.878Z,86.24
2022-11-06T16:05:56.405Z,87.20
2022-11-06T16:09:03.548Z,87.07
2022-11-06T16:12:08.026Z,85.53
2022-11-06T16:15:44.826Z,85.82
2022-11-06T16:18:49.595Z,85.20
2022-11-06T16:21:57.486Z,84.84
2022-11-06T16:25:05.399Z,84.43
2022-11-06T16:28:17.565Z,85.55
2022-11-06T16:31:24.675Z,85.62
2022-11-06T16:34:44.190Z,85.56
2022-11-06T16:37:48.055Z,86.34
2022-11-06T16:40:54.505Z,85.77
2022-11-06T16:44:27.807Z,85.26
2022-11-06T16:47:34.433Z,85.92
2022-11-06T16:50:46.439Z,86.45
2022-11-06T16:53:56.378Z,87.29
2022-11-06T16:57:10.681Z,86.37
2022-11-06T17:00:26.047Z,88.08
2022-11-06T17:03:36.319Z,88.17
2022-11-06T17:06:40.166Z,89.14
2022-11-06T17:09:44.295Z,88.10
2022-11-06T17:12:49.485Z,87.36
2022-11-06T17:15:56.619Z,87.68
2022-11-06T17:19:00.498Z,87.20
2022-11-06T17:22:07.145Z,87.60
2022-11-06T17:25:11.132Z,88.18
2022-11-06T17:28:16.758Z,87.04
2022-11-06T17:31:21.760Z,86.55
2022-11-06T17:34:25.596Z,86.55
2022-11-06T17:37:29.489Z,86.28
2022-11-06T17:40:33.354Z,87.10
2022-11-06T17:43:38.565Z,85.34
2022-11-06T17:46:44.816Z,85.45
2022-11-06T17:49:49.044Z,85.27
2022-11-06T17:52:52.846Z,86.06
2022-11-06T17:55:56.698Z,87.39
2022-11-06T17:59:01.929Z,87.57
2022-11-06T18:02:06.051Z,86.61
2022-11-06T18:05:10.610Z,87.61
2022-11-06T18:08:15.918Z,89.06
2022-11-06T18:11:20.033Z,88.06
2022-11-06T18:14:26.654Z,87.32
2022-11-06T18:17:30.305Z,87.40
2022-11-06T18:20:34.068Z,86.57
2022-11-06T18:23:37.915Z,86.86
2022-11-06T18:26:43.089Z,86.19
2022-11-06T18:29:48.306Z,86.76
2022-11-06T18:32:52.098Z,85.93
2022-11-06T18:35:55.886Z,85.51
2022-11-06T18:38:59.805Z,86.33
2022-11-06T18:42:04.213Z,85.64
2022-11-06T18:45:10.328Z,87.60
2022-11-06T18:48:19.796Z,87.09
2022-11-06T18:51:35.029Z,86.53
2022-11-06T18:54:39.958Z,87.14
2022-11-06T18:57:43.911Z,88.15
2022-11-06T19:00:49.148Z,87.17
2022-11-06T19:03:54.179Z,86.31
2022-11-06T19:06:57.867Z,86.44
2022-11-06T19:10:05.177Z,87.81
2022-11-06T19:13:08.837Z,88.25
2022-11-06T19:16:14.591Z,87.44
2022-11-06T19:19:25.247Z,88.24
2022-11-06T19:22:31.278Z,88.51
2022-11-06T19:25:35.157Z,88.74
2022-11-06T19:28:38.926Z,88.78
2022-11-06T19:31:44.207Z,88.80
2022-11-06T19:34:48.184Z,90.00
2022-11-06T19:37:52.470Z,90.37
2022-11-06T19:40:57.880Z,89.67
2022-11-06T19:44:01.788Z,89.38
2022-11-06T19:47:07.032Z,88.02
2022-11-06T19:50:11.394Z,88.17
2022-11-06T19:53:18.549Z,87.72
2022-11-06T19:56:23.437Z,86.79
2022-11-06T19:59:27.066Z,86.36
2022-11-06T20:02:32.555Z,86.77
2022-11-06T20:05:36.729Z,87.81
2022-11-06T20:08:40.645Z,87.61
2022-11-06T20:11:44.678Z,86.79
2022-11-06T20:14:49.375Z,86.23
2022-11-06T20:17:54.608Z,87.24
2022-11-06T20:21:02.119Z,85.92
2022-11-06T20:24:08.545Z,85.24
2022-11-06T20:27:12.858Z,85.76
2022-11-06T20:30:17.243Z,88.97
2022-11-06T20:33:22.588Z,87.17
2022-11-06T20:36:28.144Z,86.17
2022-11-06T20:39:32.260Z,85.16
2022-11-06T20:42:36.135Z,84.65
2022-11-06T20:45:41.141Z,86.00
2022-11-06T20:48:47.257Z,85.75
2022-11-06T20:52:12.743Z,86.82
2022-11-06T20:55:15.177Z,86.38
2022-11-06T20:58:18.854Z,86.32
2022-11-06T21:01:24.421Z,85.93
2022-11-06T21:04:29.833Z,85.84
2022-11-06T21:07:35.387Z,86.39
2022-11-06T21:10:39.749Z,85.97
2022-11-06T21:13:44.297Z,85.44
2022-11-06T21:16:48.317Z,84.76
2022-11-06T21:19:53.744Z,84.58
2022-11-06T21:22:57.738Z,83.99
2022-11-06T21:26:06.900Z,84.03
2022-11-06T21:29:12.213Z,84.07
2022-11-06T21:32:15.988Z,83.38
2022-11-06T21:35:21.352Z,83.30
2022-11-06T21:38:25.046Z,83.61
2022-11-06T21:41:33.236Z,83.62
2022-11-06T21:44:37.172Z,83.29
2022-11-06T21:47:40.725Z,83.39
2022-11-06T21:50:45.968Z,83.55
2022-11-06T21:54:08.245Z,83.82
2022-11-06T21:57:12.155Z,83.28
2022-11-06T22:00:16.726Z,83.65
2022-11-06T22:03:20.814Z,82.93
2022-11-06T22:06:27.723Z,83.36
2022-11-06T22:09:31.553Z,83.68
2022-11-06T22:12:36.154Z,83.17
2022-11-06T22:15:39.723Z,82.97
2022-11-06T22:18:43.688Z,82.77
2022-11-06T22:21:48.719Z,81.77
2022-11-06T22:24:52.549Z,81.82
2022-11-06T22:27:56.108Z,83.08
2022-11-06T22:30:59.968Z,84.00
2022-11-06T22:34:03.974Z,84.18
2022-11-06T22:37:09.292Z,84.13
2022-11-06T22:40:13.685Z,87.62
2022-11-06T22:43:17.391Z,85.92
2022-11-06T22:46:23.018Z,86.64
2022-11-06T22:49:27.259Z,84.42
2022-11-06T22:52:32.267Z,84.28
2022-11-06T22:55:36.084Z,85.91
2022-11-06T22:58:39.804Z,86.72
2022-11-06T23:01:44.066Z,87.52
2022-11-06T23:04:47.596Z,85.59
2022-11-06T23:07:52.917Z,85.77
2022-11-06T23:10:57.598Z,85.15
2022-11-06T23:14:07.482Z,84.34
2022-11-06T23:17:12.484Z,83.84
2022-11-06T23:20:17.125Z,84.43
2022-11-06T23:23:22.255Z,83.42
2022-11-06T23:26:26.073Z,83.37
2022-11-06T23:29:29.793Z,83.09
2022-11-06T23:32:35.844Z,82.64
2022-11-06T23:35:39.476Z,82.74
2022-11-06T23:38:45.629Z,82.87
2022-11-06T23:41:49.338Z,82.35
2022-11-06T23:45:22.023Z,81.88
2022-11-06T23:48:25.687Z,82.45
2022-11-06T23:51:29.587Z,82.34
2022-11-06T23:54:34.832Z,82.75
2022-11-06T23:57:38.779Z,81.79
